sensor_id;sensor_type;location;lat;lon;timestamp;temperature;humidity
33093;DHT22;19456;46.104;12.908;2023-12-20T00:01:16;3.90;99.90
33093;DHT22;19456;46.104;12.908;2023-12-20T00:03:42;4.10;99.90
33093;DHT22;19456;46.104;12.908;2023-12-20T00:06:08;4.00;99.90
33093;DHT22;19456;46.104;12.908;2023-12-20T00:08:34;3.80;99.90
33093;DHT22;19456;46.104;12.908;2023-12-20T00:10:59;3.60;99.90
33093;DHT22;19456;46.104;12.908;2023-12-20T00:13:25;3.40;99.90
33093;DHT22;19456;46.104;12.908;2023-12-20T00:15:50;3.10;99.90
33093;DHT22;19456;46.104;12.908;2023-12-20T00:18:16;3.00;99.90
33093;DHT22;19456;46.104;12.908;2023-12-20T00:20:41;2.70;99.90
33093;DHT22;19456;46.104;12.908;2023-12-20T00:23:07;2.60;99.90
33093;DHT22;19456;46.104;12.908;2023-12-20T00:25:33;2.80;99.90
33093;DHT22;19456;46.104;12.908;2023-12-20T00:27:59;2.80;99.90
33093;DHT22;19456;46.104;12.908;2023-12-20T00:30:25;2.80;99.90
33093;DHT22;19456;46.104;12.908;2023-12-20T00:32:50;2.40;99.90
33093;DHT22;19456;46.104;12.908;2023-12-20T00:35:16;2.30;99.90
33093;DHT22;19456;46.104;12.908;2023-12-20T00:37:42;2.30;99.90
33093;DHT22;19456;46.104;12.908;2023-12-20T00:40:08;2.40;99.90
33093;DHT22;19456;46.104;12.908;2023-12-20T00:42:33;2.40;99.90
33093;DHT22;19456;46.104;12.908;2023-12-20T00:44:59;2.40;99.90
33093;DHT22;19456;46.104;12.908;2023-12-20T00:47:25;2.30;99.90
33093;DHT22;19456;46.104;12.908;2023-12-20T00:49:51;2.20;99.90
33093;DHT22;19456;46.104;12.908;2023-12-20T00:52:16;2.20;99.90
33093;DHT22;19456;46.104;12.908;2023-12-20T00:54:43;2.20;99.90
33093;DHT22;19456;46.104;12.908;2023-12-20T00:57:08;2.20;99.90
33093;DHT22;19456;46.104;12.908;2023-12-20T00:59:34;2.10;99.90
33093;DHT22;19456;46.104;12.908;2023-12-20T01:02:00;2.10;99.90
33093;DHT22;19456;46.104;12.908;2023-12-20T01:04:25;2.20;99.90
33093;DHT22;19456;46.104;12.908;2023-12-20T01:06:51;2.20;99.90
33093;DHT22;19456;46.104;12.908;2023-12-20T01:09:17;2.40;99.90
33093;DHT22;19456;46.104;12.908;2023-12-20T01:11:43;2.50;99.90
33093;DHT22;19456;46.104;12.908;2023-12-20T01:14:09;2.70;99.90
33093;DHT22;19456;46.104;12.908;2023-12-20T01:16:35;2.90;99.90
33093;DHT22;19456;46.104;12.908;2023-12-20T01:19:00;2.80;99.90
33093;DHT22;19456;46.104;12.908;2023-12-20T01:21:26;2.70;99.90
33093;DHT22;19456;46.104;12.908;2023-12-20T01:23:51;2.80;99.90
33093;DHT22;19456;46.104;12.908;2023-12-20T01:26:17;2.80;99.90
33093;DHT22;19456;46.104;12.908;2023-12-20T01:28:42;2.80;99.90
33093;DHT22;19456;46.104;12.908;2023-12-20T01:31:08;2.80;99.90
33093;DHT22;19456;46.104;12.908;2023-12-20T01:33:34;3.00;99.90
33093;DHT22;19456;46.104;12.908;2023-12-20T01:35:59;3.30;99.90
33093;DHT22;19456;46.104;12.908;2023-12-20T01:38:25;3.00;99.90
33093;DHT22;19456;46.104;12.908;2023-12-20T01:40:50;2.80;99.90
33093;DHT22;19456;46.104;12.908;2023-12-20T01:43:16;2.70;99.90
33093;DHT22;19456;46.104;12.908;2023-12-20T01:45:42;2.70;99.90
33093;DHT22;19456;46.104;12.908;2023-12-20T01:48:08;2.80;99.90
33093;DHT22;19456;46.104;12.908;2023-12-20T01:50:34;2.90;99.90
33093;DHT22;19456;46.104;12.908;2023-12-20T01:53:01;2.90;99.90
33093;DHT22;19456;46.104;12.908;2023-12-20T01:55:27;2.90;99.90
33093;DHT22;19456;46.104;12.908;2023-12-20T01:57:54;3.10;99.90
33093;DHT22;19456;46.104;12.908;2023-12-20T02:00:20;3.10;99.90
33093;DHT22;19456;46.104;12.908;2023-12-20T02:02:48;2.90;99.90
33093;DHT22;19456;46.104;12.908;2023-12-20T02:05:15;2.70;99.90
33093;DHT22;19456;46.104;12.908;2023-12-20T02:07:42;2.60;99.90
33093;DHT22;19456;46.104;12.908;2023-12-20T02:10:07;2.50;99.90
33093;DHT22;19456;46.104;12.908;2023-12-20T02:12:33;2.40;99.90
33093;DHT22;19456;46.104;12.908;2023-12-20T02:14:59;2.60;99.90
33093;DHT22;19456;46.104;12.908;2023-12-20T02:17:25;2.50;99.90
33093;DHT22;19456;46.104;12.908;2023-12-20T02:19:50;2.50;99.90
33093;DHT22;19456;46.104;12.908;2023-12-20T02:22:16;2.50;99.90
33093;DHT22;19456;46.104;12.908;2023-12-20T02:24:41;2.50;99.90
33093;DHT22;19456;46.104;12.908;2023-12-20T02:27:07;2.50;99.90
33093;DHT22;19456;46.104;12.908;2023-12-20T02:29:33;2.70;99.90
33093;DHT22;19456;46.104;12.908;2023-12-20T02:31:59;2.70;99.90
33093;DHT22;19456;46.104;12.908;2023-12-20T02:34:25;2.60;99.90
33093;DHT22;19456;46.104;12.908;2023-12-20T02:36:50;2.70;99.90
33093;DHT22;19456;46.104;12.908;2023-12-20T02:39:16;2.70;99.90
33093;DHT22;19456;46.104;12.908;2023-12-20T02:41:41;2.70;99.90
33093;DHT22;19456;46.104;12.908;2023-12-20T02:44:07;3.00;99.90
33093;DHT22;19456;46.104;12.908;2023-12-20T02:46:33;3.00;99.90
33093;DHT22;19456;46.104;12.908;2023-12-20T02:48:58;2.90;99.90
33093;DHT22;19456;46.104;12.908;2023-12-20T02:51:24;2.90;99.90
33093;DHT22;19456;46.104;12.908;2023-12-20T02:53:49;2.90;99.90
33093;DHT22;19456;46.104;12.908;2023-12-20T02:56:15;2.90;99.90
33093;DHT22;19456;46.104;12.908;2023-12-20T02:58:40;3.00;99.90
33093;DHT22;19456;46.104;12.908;2023-12-20T03:01:06;3.10;99.90
33093;DHT22;19456;46.104;12.908;2023-12-20T03:03:32;3.10;99.90
33093;DHT22;19456;46.104;12.908;2023-12-20T03:05:57;3.00;99.90
33093;DHT22;19456;46.104;12.908;2023-12-20T03:08:23;3.10;99.90
33093;DHT22;19456;46.104;12.908;2023-12-20T03:10:48;3.10;99.90
33093;DHT22;19456;46.104;12.908;2023-12-20T03:13:14;3.10;99.90
33093;DHT22;19456;46.104;12.908;2023-12-20T03:15:40;3.10;99.90
33093;DHT22;19456;46.104;12.908;2023-12-20T03:18:05;3.10;99.90
33093;DHT22;19456;46.104;12.908;2023-12-20T03:20:31;2.80;99.90
33093;DHT22;19456;46.104;12.908;2023-12-20T03:23:00;2.80;99.90
33093;DHT22;19456;46.104;12.908;2023-12-20T03:25:25;2.80;99.90
33093;DHT22;19456;46.104;12.908;2023-12-20T03:27:51;2.40;99.90
33093;DHT22;19456;46.104;12.908;2023-12-20T03:30:17;2.20;99.90
33093;DHT22;19456;46.104;12.908;2023-12-20T03:32:43;1.90;99.90
33093;DHT22;19456;46.104;12.908;2023-12-20T03:35:11;1.90;99.90
33093;DHT22;19456;46.104;12.908;2023-12-20T03:37:37;2.00;99.90
33093;DHT22;19456;46.104;12.908;2023-12-20T03:40:03;2.10;99.90
33093;DHT22;19456;46.104;12.908;2023-12-20T03:42:28;2.20;99.90
33093;DHT22;19456;46.104;12.908;2023-12-20T03:44:54;2.40;99.90
33093;DHT22;19456;46.104;12.908;2023-12-20T03:47:19;2.40;99.90
33093;DHT22;19456;46.104;12.908;2023-12-20T03:49:45;2.50;99.90
33093;DHT22;19456;46.104;12.908;2023-12-20T03:52:11;2.70;99.90
33093;DHT22;19456;46.104;12.908;2023-12-20T03:54:37;2.90;99.90
33093;DHT22;19456;46.104;12.908;2023-12-20T03:57:03;2.90;99.90
33093;DHT22;19456;46.104;12.908;2023-12-20T03:59:28;2.90;99.90
33093;DHT22;19456;46.104;12.908;2023-12-20T04:01:54;2.90;99.90
33093;DHT22;19456;46.104;12.908;2023-12-20T04:04:19;2.90;99.90
33093;DHT22;19456;46.104;12.908;2023-12-20T04:06:45;2.90;99.90
33093;DHT22;19456;46.104;12.908;2023-12-20T04:09:10;2.90;99.90
33093;DHT22;19456;46.104;12.908;2023-12-20T04:11:37;2.90;99.90
33093;DHT22;19456;46.104;12.908;2023-12-20T04:14:02;2.80;99.90
33093;DHT22;19456;46.104;12.908;2023-12-20T04:16:30;2.70;99.90
33093;DHT22;19456;46.104;12.908;2023-12-20T04:18:55;2.70;99.90
33093;DHT22;19456;46.104;12.908;2023-12-20T04:21:21;2.80;99.90
33093;DHT22;19456;46.104;12.908;2023-12-20T04:23:47;2.90;99.90
33093;DHT22;19456;46.104;12.908;2023-12-20T04:26:12;3.00;99.90
33093;DHT22;19456;46.104;12.908;2023-12-20T04:28:38;3.10;99.90
33093;DHT22;19456;46.104;12.908;2023-12-20T04:31:03;3.00;99.90
33093;DHT22;19456;46.104;12.908;2023-12-20T04:33:29;3.00;99.90
33093;DHT22;19456;46.104;12.908;2023-12-20T04:35:55;3.10;99.90
33093;DHT22;19456;46.104;12.908;2023-12-20T04:38:20;3.20;99.90
33093;DHT22;19456;46.104;12.908;2023-12-20T04:40:46;3.30;99.90
33093;DHT22;19456;46.104;12.908;2023-12-20T04:43:11;3.30;99.90
33093;DHT22;19456;46.104;12.908;2023-12-20T04:45:37;3.40;99.90
33093;DHT22;19456;46.104;12.908;2023-12-20T04:48:03;3.50;99.90
33093;DHT22;19456;46.104;12.908;2023-12-20T04:50:29;3.60;99.90
33093;DHT22;19456;46.104;12.908;2023-12-20T04:52:54;3.60;99.90
33093;DHT22;19456;46.104;12.908;2023-12-20T04:55:20;3.70;99.90
33093;DHT22;19456;46.104;12.908;2023-12-20T04:57:46;3.60;99.90
33093;DHT22;19456;46.104;12.908;2023-12-20T05:00:11;3.60;99.90
33093;DHT22;19456;46.104;12.908;2023-12-20T05:02:37;3.60;99.90
33093;DHT22;19456;46.104;12.908;2023-12-20T05:05:03;3.50;99.90
33093;DHT22;19456;46.104;12.908;2023-12-20T05:07:29;3.30;99.90
33093;DHT22;19456;46.104;12.908;2023-12-20T05:09:54;3.10;99.90
33093;DHT22;19456;46.104;12.908;2023-12-20T05:12:20;3.10;99.90
33093;DHT22;19456;46.104;12.908;2023-12-20T05:14:46;2.80;99.90
33093;DHT22;19456;46.104;12.908;2023-12-20T05:17:11;2.60;99.90
33093;DHT22;19456;46.104;12.908;2023-12-20T05:19:37;2.50;99.90
33093;DHT22;19456;46.104;12.908;2023-12-20T05:22:02;2.60;99.90
33093;DHT22;19456;46.104;12.908;2023-12-20T05:24:28;2.70;99.90
33093;DHT22;19456;46.104;12.908;2023-12-20T05:26:53;2.80;99.90
33093;DHT22;19456;46.104;12.908;2023-12-20T05:29:19;3.10;99.90
33093;DHT22;19456;46.104;12.908;2023-12-20T05:31:45;3.00;99.90
33093;DHT22;19456;46.104;12.908;2023-12-20T05:34:10;2.90;99.90
33093;DHT22;19456;46.104;12.908;2023-12-20T05:36:36;2.90;99.90
33093;DHT22;19456;46.104;12.908;2023-12-20T05:39:02;2.80;99.90
33093;DHT22;19456;46.104;12.908;2023-12-20T05:41:30;2.80;99.90
33093;DHT22;19456;46.104;12.908;2023-12-20T05:43:55;2.80;99.90
33093;DHT22;19456;46.104;12.908;2023-12-20T05:46:23;3.10;99.90
33093;DHT22;19456;46.104;12.908;2023-12-20T05:48:49;3.10;99.90
33093;DHT22;19456;46.104;12.908;2023-12-20T05:51:14;3.10;99.90
33093;DHT22;19456;46.104;12.908;2023-12-20T05:53:40;3.10;99.90
33093;DHT22;19456;46.104;12.908;2023-12-20T05:56:05;2.80;99.90
33093;DHT22;19456;46.104;12.908;2023-12-20T05:58:32;2.80;99.90
33093;DHT22;19456;46.104;12.908;2023-12-20T06:00:57;2.90;99.90
33093;DHT22;19456;46.104;12.908;2023-12-20T06:03:23;2.80;99.90
33093;DHT22;19456;46.104;12.908;2023-12-20T06:05:48;2.90;99.90
33093;DHT22;19456;46.104;12.908;2023-12-20T06:08:14;3.00;99.90
33093;DHT22;19456;46.104;12.908;2023-12-20T06:10:40;2.80;99.90
33093;DHT22;19456;46.104;12.908;2023-12-20T06:13:05;2.90;99.90
33093;DHT22;19456;46.104;12.908;2023-12-20T06:15:32;2.90;99.90
33093;DHT22;19456;46.104;12.908;2023-12-20T06:17:58;3.10;99.90
33093;DHT22;19456;46.104;12.908;2023-12-20T06:20:23;3.00;99.90
33093;DHT22;19456;46.104;12.908;2023-12-20T06:22:49;2.90;99.90
33093;DHT22;19456;46.104;12.908;2023-12-20T06:25:15;3.00;99.90
33093;DHT22;19456;46.104;12.908;2023-12-20T06:27:40;3.20;99.90
33093;DHT22;19456;46.104;12.908;2023-12-20T06:30:07;3.10;99.90
33093;DHT22;19456;46.104;12.908;2023-12-20T06:32:34;3.00;99.90
33093;DHT22;19456;46.104;12.908;2023-12-20T06:35:00;3.10;99.90
33093;DHT22;19456;46.104;12.908;2023-12-20T06:37:26;3.10;99.90
33093;DHT22;19456;46.104;12.908;2023-12-20T06:39:55;3.00;99.90
33093;DHT22;19456;46.104;12.908;2023-12-20T06:42:22;3.00;99.90
33093;DHT22;19456;46.104;12.908;2023-12-20T06:44:47;3.00;99.90
33093;DHT22;19456;46.104;12.908;2023-12-20T06:47:13;3.10;99.90
33093;DHT22;19456;46.104;12.908;2023-12-20T06:49:40;3.00;99.90
33093;DHT22;19456;46.104;12.908;2023-12-20T06:52:05;3.00;99.90
33093;DHT22;19456;46.104;12.908;2023-12-20T06:54:31;3.10;99.90
33093;DHT22;19456;46.104;12.908;2023-12-20T06:57:04;3.20;99.90
33093;DHT22;19456;46.104;12.908;2023-12-20T06:59:41;3.30;99.90
33093;DHT22;19456;46.104;12.908;2023-12-20T07:02:08;3.50;99.90
33093;DHT22;19456;46.104;12.908;2023-12-20T07:04:44;3.60;99.90
33093;DHT22;19456;46.104;12.908;2023-12-20T07:07:22;3.70;99.90
33093;DHT22;19456;46.104;12.908;2023-12-20T07:09:50;3.90;99.90
33093;DHT22;19456;46.104;12.908;2023-12-20T07:12:16;4.10;99.90
33093;DHT22;19456;46.104;12.908;2023-12-20T07:14:46;4.10;99.90
33093;DHT22;19456;46.104;12.908;2023-12-20T07:17:13;4.10;99.90
33093;DHT22;19456;46.104;12.908;2023-12-20T07:19:41;4.10;99.90
33093;DHT22;19456;46.104;12.908;2023-12-20T07:22:07;4.20;99.90
33093;DHT22;19456;46.104;12.908;2023-12-20T07:24:34;4.20;99.90
33093;DHT22;19456;46.104;12.908;2023-12-20T07:27:00;4.30;99.90
33093;DHT22;19456;46.104;12.908;2023-12-20T07:29:26;4.40;99.90
33093;DHT22;19456;46.104;12.908;2023-12-20T07:31:53;4.60;99.90
33093;DHT22;19456;46.104;12.908;2023-12-20T07:34:22;4.70;99.90
33093;DHT22;19456;46.104;12.908;2023-12-20T07:36:50;4.80;99.90
33093;DHT22;19456;46.104;12.908;2023-12-20T07:39:16;4.70;99.90
33093;DHT22;19456;46.104;12.908;2023-12-20T07:41:43;4.60;99.90
33093;DHT22;19456;46.104;12.908;2023-12-20T07:44:10;4.50;99.90
33093;DHT22;19456;46.104;12.908;2023-12-20T07:46:36;4.50;99.90
33093;DHT22;19456;46.104;12.908;2023-12-20T07:49:03;4.50;99.90
33093;DHT22;19456;46.104;12.908;2023-12-20T07:51:29;4.60;99.90
33093;DHT22;19456;46.104;12.908;2023-12-20T07:53:55;4.70;99.90
33093;DHT22;19456;46.104;12.908;2023-12-20T07:56:22;4.80;99.90
33093;DHT22;19456;46.104;12.908;2023-12-20T07:58:48;4.80;99.90
33093;DHT22;19456;46.104;12.908;2023-12-20T08:01:15;4.90;99.90
33093;DHT22;19456;46.104;12.908;2023-12-20T08:03:45;4.90;99.90
33093;DHT22;19456;46.104;12.908;2023-12-20T08:06:12;5.00;99.90
33093;DHT22;19456;46.104;12.908;2023-12-20T08:08:38;5.00;99.90
33093;DHT22;19456;46.104;12.908;2023-12-20T08:11:07;5.10;99.90
33093;DHT22;19456;46.104;12.908;2023-12-20T08:13:33;5.30;99.90
33093;DHT22;19456;46.104;12.908;2023-12-20T08:16:00;5.40;99.90
33093;DHT22;19456;46.104;12.908;2023-12-20T08:18:28;5.40;99.90
33093;DHT22;19456;46.104;12.908;2023-12-20T08:20:55;5.30;99.90
33093;DHT22;19456;46.104;12.908;2023-12-20T08:23:21;5.30;99.90
33093;DHT22;19456;46.104;12.908;2023-12-20T08:25:50;5.30;99.90
33093;DHT22;19456;46.104;12.908;2023-12-20T08:28:16;5.30;99.90
33093;DHT22;19456;46.104;12.908;2023-12-20T08:30:43;5.40;99.90
33093;DHT22;19456;46.104;12.908;2023-12-20T08:33:08;5.50;99.90
33093;DHT22;19456;46.104;12.908;2023-12-20T08:35:41;5.50;99.90
33093;DHT22;19456;46.104;12.908;2023-12-20T08:38:08;5.50;99.90
33093;DHT22;19456;46.104;12.908;2023-12-20T08:40:34;5.50;99.90
33093;DHT22;19456;46.104;12.908;2023-12-20T08:43:01;5.40;99.90
33093;DHT22;19456;46.104;12.908;2023-12-20T08:45:27;5.30;99.90
33093;DHT22;19456;46.104;12.908;2023-12-20T08:47:53;5.20;99.90
33093;DHT22;19456;46.104;12.908;2023-12-20T08:50:19;5.10;99.90
33093;DHT22;19456;46.104;12.908;2023-12-20T08:52:47;5.10;99.90
33093;DHT22;19456;46.104;12.908;2023-12-20T08:55:13;5.00;99.90
33093;DHT22;19456;46.104;12.908;2023-12-20T08:57:44;5.00;99.90
33093;DHT22;19456;46.104;12.908;2023-12-20T09:00:10;5.00;99.90
33093;DHT22;19456;46.104;12.908;2023-12-20T09:02:59;5.20;99.90
33093;DHT22;19456;46.104;12.908;2023-12-20T09:05:25;5.40;99.90
33093;DHT22;19456;46.104;12.908;2023-12-20T09:08:16;5.60;99.90
33093;DHT22;19456;46.104;12.908;2023-12-20T09:10:42;5.70;99.90
33093;DHT22;19456;46.104;12.908;2023-12-20T09:13:13;5.80;99.90
33093;DHT22;19456;46.104;12.908;2023-12-20T09:15:39;5.80;99.90
33093;DHT22;19456;46.104;12.908;2023-12-20T09:18:05;5.50;99.90
33093;DHT22;19456;46.104;12.908;2023-12-20T09:20:33;5.30;99.90
33093;DHT22;19456;46.104;12.908;2023-12-20T09:23:08;5.30;99.90
33093;DHT22;19456;46.104;12.908;2023-12-20T09:25:35;5.50;99.90
33093;DHT22;19456;46.104;12.908;2023-12-20T09:28:01;5.60;99.90
33093;DHT22;19456;46.104;12.908;2023-12-20T09:30:28;5.70;99.90
33093;DHT22;19456;46.104;12.908;2023-12-20T09:32:55;5.70;99.90
33093;DHT22;19456;46.104;12.908;2023-12-20T09:35:20;5.70;99.90
33093;DHT22;19456;46.104;12.908;2023-12-20T09:37:49;5.80;99.90
33093;DHT22;19456;46.104;12.908;2023-12-20T09:40:19;5.80;99.90
33093;DHT22;19456;46.104;12.908;2023-12-20T09:45:46;5.90;99.90
33093;DHT22;19456;46.104;12.908;2023-12-20T09:48:17;5.90;99.90
33093;DHT22;19456;46.104;12.908;2023-12-20T09:50:51;5.90;99.90
33093;DHT22;19456;46.104;12.908;2023-12-20T09:53:17;6.00;99.90
33093;DHT22;19456;46.104;12.908;2023-12-20T09:55:45;6.20;99.90
33093;DHT22;19456;46.104;12.908;2023-12-20T09:58:14;6.40;99.90
33093;DHT22;19456;46.104;12.908;2023-12-20T10:00:46;6.50;99.90
33093;DHT22;19456;46.104;12.908;2023-12-20T10:03:24;6.70;99.90
33093;DHT22;19456;46.104;12.908;2023-12-20T10:05:59;6.60;99.90
33093;DHT22;19456;46.104;12.908;2023-12-20T10:08:29;6.60;99.90
33093;DHT22;19456;46.104;12.908;2023-12-20T10:10:56;6.30;99.90
33093;DHT22;19456;46.104;12.908;2023-12-20T10:13:27;6.20;99.90
33093;DHT22;19456;46.104;12.908;2023-12-20T10:15:54;6.20;99.90
33093;DHT22;19456;46.104;12.908;2023-12-20T10:18:42;6.20;99.90
33093;DHT22;19456;46.104;12.908;2023-12-20T10:21:08;6.20;99.90
33093;DHT22;19456;46.104;12.908;2023-12-20T10:23:36;6.30;99.90
33093;DHT22;19456;46.104;12.908;2023-12-20T10:26:08;6.40;99.90
33093;DHT22;19456;46.104;12.908;2023-12-20T10:28:36;6.50;99.90
33093;DHT22;19456;46.104;12.908;2023-12-20T10:31:08;6.50;99.90
33093;DHT22;19456;46.104;12.908;2023-12-20T10:33:34;6.60;99.90
33093;DHT22;19456;46.104;12.908;2023-12-20T10:36:02;6.80;99.90
33093;DHT22;19456;46.104;12.908;2023-12-20T10:38:28;7.00;99.90
33093;DHT22;19456;46.104;12.908;2023-12-20T10:40:58;7.10;99.90
33093;DHT22;19456;46.104;12.908;2023-12-20T10:43:27;7.10;99.90
33093;DHT22;19456;46.104;12.908;2023-12-20T10:45:54;7.10;99.90
33093;DHT22;19456;46.104;12.908;2023-12-20T10:48:26;7.10;99.90
33093;DHT22;19456;46.104;12.908;2023-12-20T10:50:55;7.20;99.90
33093;DHT22;19456;46.104;12.908;2023-12-20T10:53:26;7.40;99.90
33093;DHT22;19456;46.104;12.908;2023-12-20T10:58:41;7.60;99.90
33093;DHT22;19456;46.104;12.908;2023-12-20T11:01:16;7.70;99.90
33093;DHT22;19456;46.104;12.908;2023-12-20T11:03:54;7.80;99.90
33093;DHT22;19456;46.104;12.908;2023-12-20T11:06:49;7.90;99.90
33093;DHT22;19456;46.104;12.908;2023-12-20T11:15:47;8.30;99.90
33093;DHT22;19456;46.104;12.908;2023-12-20T11:30:55;8.90;99.90
33093;DHT22;19456;46.104;12.908;2023-12-20T11:33:21;8.90;99.90
33093;DHT22;19456;46.104;12.908;2023-12-20T11:35:50;8.90;99.90
33093;DHT22;19456;46.104;12.908;2023-12-20T11:38:37;8.90;99.90
33093;DHT22;19456;46.104;12.908;2023-12-20T11:41:08;8.90;99.90
33093;DHT22;19456;46.104;12.908;2023-12-20T11:43:39;9.00;99.90
33093;DHT22;19456;46.104;12.908;2023-12-20T11:46:05;9.10;99.90
33093;DHT22;19456;46.104;12.908;2023-12-20T11:48:32;9.20;99.90
33093;DHT22;19456;46.104;12.908;2023-12-20T11:50:58;9.20;99.90
33093;DHT22;19456;46.104;12.908;2023-12-20T11:53:52;9.10;99.90
33093;DHT22;19456;46.104;12.908;2023-12-20T11:56:28;9.00;99.90
33093;DHT22;19456;46.104;12.908;2023-12-20T11:58:55;9.10;99.90
33093;DHT22;19456;46.104;12.908;2023-12-20T12:01:21;9.10;99.90
33093;DHT22;19456;46.104;12.908;2023-12-20T12:03:46;9.10;99.90
33093;DHT22;19456;46.104;12.908;2023-12-20T12:06:12;9.10;99.90
33093;DHT22;19456;46.104;12.908;2023-12-20T12:08:41;9.00;99.90
33093;DHT22;19456;46.104;12.908;2023-12-20T12:11:10;8.90;99.90
33093;DHT22;19456;46.104;12.908;2023-12-20T12:13:36;8.80;99.90
33093;DHT22;19456;46.104;12.908;2023-12-20T12:16:02;8.80;99.90
33093;DHT22;19456;46.104;12.908;2023-12-20T12:18:27;8.80;99.90
33093;DHT22;19456;46.104;12.908;2023-12-20T12:20:59;8.80;99.90
33093;DHT22;19456;46.104;12.908;2023-12-20T12:23:28;8.80;99.90
33093;DHT22;19456;46.104;12.908;2023-12-20T12:25:53;8.80;99.90
33093;DHT22;19456;46.104;12.908;2023-12-20T12:28:25;8.80;99.90
33093;DHT22;19456;46.104;12.908;2023-12-20T12:30:57;8.80;99.90
33093;DHT22;19456;46.104;12.908;2023-12-20T12:33:29;8.80;99.90
33093;DHT22;19456;46.104;12.908;2023-12-20T12:35:55;8.90;99.90
33093;DHT22;19456;46.104;12.908;2023-12-20T12:38:21;9.00;99.90
33093;DHT22;19456;46.104;12.908;2023-12-20T12:40:47;9.00;99.90
33093;DHT22;19456;46.104;12.908;2023-12-20T12:43:12;9.00;99.90
33093;DHT22;19456;46.104;12.908;2023-12-20T12:45:39;9.00;99.90
33093;DHT22;19456;46.104;12.908;2023-12-20T12:48:05;8.90;99.90
33093;DHT22;19456;46.104;12.908;2023-12-20T12:50:31;9.00;99.90
33093;DHT22;19456;46.104;12.908;2023-12-20T12:52:56;9.00;99.90
33093;DHT22;19456;46.104;12.908;2023-12-20T12:55:22;8.90;99.90
33093;DHT22;19456;46.104;12.908;2023-12-20T12:57:48;9.00;99.90
33093;DHT22;19456;46.104;12.908;2023-12-20T13:00:13;9.00;99.90
33093;DHT22;19456;46.104;12.908;2023-12-20T13:02:39;9.00;99.90
33093;DHT22;19456;46.104;12.908;2023-12-20T13:05:07;9.00;99.90
33093;DHT22;19456;46.104;12.908;2023-12-20T13:07:33;9.10;99.90
33093;DHT22;19456;46.104;12.908;2023-12-20T13:09:59;9.10;99.90
33093;DHT22;19456;46.104;12.908;2023-12-20T13:12:26;9.10;99.90
33093;DHT22;19456;46.104;12.908;2023-12-20T13:14:51;9.10;99.90
33093;DHT22;19456;46.104;12.908;2023-12-20T13:17:17;9.10;99.90
33093;DHT22;19456;46.104;12.908;2023-12-20T13:19:42;9.20;99.90
33093;DHT22;19456;46.104;12.908;2023-12-20T13:22:08;9.20;99.90
33093;DHT22;19456;46.104;12.908;2023-12-20T13:24:34;9.20;99.90
33093;DHT22;19456;46.104;12.908;2023-12-20T13:27:00;9.20;99.90
33093;DHT22;19456;46.104;12.908;2023-12-20T13:29:25;9.20;99.90
33093;DHT22;19456;46.104;12.908;2023-12-20T13:31:54;9.30;99.90
33093;DHT22;19456;46.104;12.908;2023-12-20T13:34:19;9.30;99.90
33093;DHT22;19456;46.104;12.908;2023-12-20T13:36:45;9.30;99.90
33093;DHT22;19456;46.104;12.908;2023-12-20T13:39:13;9.30;99.90
33093;DHT22;19456;46.104;12.908;2023-12-20T13:41:39;9.40;99.90
33093;DHT22;19456;46.104;12.908;2023-12-20T13:44:06;9.50;99.90
33093;DHT22;19456;46.104;12.908;2023-12-20T13:46:31;9.50;99.90
33093;DHT22;19456;46.104;12.908;2023-12-20T13:48:57;9.50;99.90
33093;DHT22;19456;46.104;12.908;2023-12-20T13:51:22;9.60;99.90
33093;DHT22;19456;46.104;12.908;2023-12-20T13:53:48;9.70;99.90
33093;DHT22;19456;46.104;12.908;2023-12-20T13:56:14;9.70;99.90
33093;DHT22;19456;46.104;12.908;2023-12-20T13:58:40;9.80;99.90
33093;DHT22;19456;46.104;12.908;2023-12-20T14:01:09;9.90;99.90
33093;DHT22;19456;46.104;12.908;2023-12-20T14:03:36;10.10;99.90
33093;DHT22;19456;46.104;12.908;2023-12-20T14:06:01;10.20;99.90
33093;DHT22;19456;46.104;12.908;2023-12-20T14:08:27;10.30;99.90
33093;DHT22;19456;46.104;12.908;2023-12-20T14:10:53;10.40;99.90
33093;DHT22;19456;46.104;12.908;2023-12-20T14:13:19;10.10;99.90
33093;DHT22;19456;46.104;12.908;2023-12-20T14:15:46;9.90;99.90
33093;DHT22;19456;46.104;12.908;2023-12-20T14:18:14;9.80;99.90
33093;DHT22;19456;46.104;12.908;2023-12-20T14:23:23;9.90;99.90
33093;DHT22;19456;46.104;12.908;2023-12-20T14:25:49;10.00;99.90
33093;DHT22;19456;46.104;12.908;2023-12-20T14:28:18;10.00;99.90
33093;DHT22;19456;46.104;12.908;2023-12-20T14:30:44;10.00;99.90
33093;DHT22;19456;46.104;12.908;2023-12-20T14:33:09;10.00;99.90
33093;DHT22;19456;46.104;12.908;2023-12-20T14:35:35;10.00;99.90
33093;DHT22;19456;46.104;12.908;2023-12-20T14:38:01;10.00;99.90
33093;DHT22;19456;46.104;12.908;2023-12-20T14:40:26;9.80;99.90
33093;DHT22;19456;46.104;12.908;2023-12-20T14:42:52;9.60;99.90
33093;DHT22;19456;46.104;12.908;2023-12-20T14:45:18;9.60;99.90
33093;DHT22;19456;46.104;12.908;2023-12-20T14:47:43;9.50;99.90
33093;DHT22;19456;46.104;12.908;2023-12-20T14:50:09;9.50;99.90
33093;DHT22;19456;46.104;12.908;2023-12-20T14:52:37;9.40;99.90
33093;DHT22;19456;46.104;12.908;2023-12-20T14:55:02;9.10;99.90
33093;DHT22;19456;46.104;12.908;2023-12-20T14:57:28;9.00;99.90
33093;DHT22;19456;46.104;12.908;2023-12-20T14:59:55;8.90;99.90
33093;DHT22;19456;46.104;12.908;2023-12-20T15:02:20;8.90;99.90
33093;DHT22;19456;46.104;12.908;2023-12-20T15:04:46;8.90;99.90
33093;DHT22;19456;46.104;12.908;2023-12-20T15:07:11;8.90;99.90
33093;DHT22;19456;46.104;12.908;2023-12-20T15:09:37;8.80;99.90
33093;DHT22;19456;46.104;12.908;2023-12-20T15:12:03;8.80;99.90
33093;DHT22;19456;46.104;12.908;2023-12-20T15:14:29;8.70;99.90
33093;DHT22;19456;46.104;12.908;2023-12-20T15:16:55;8.60;99.90
33093;DHT22;19456;46.104;12.908;2023-12-20T15:19:28;8.60;99.90
33093;DHT22;19456;46.104;12.908;2023-12-20T15:21:54;8.50;99.90
33093;DHT22;19456;46.104;12.908;2023-12-20T15:24:20;8.40;99.90
33093;DHT22;19456;46.104;12.908;2023-12-20T15:26:52;8.40;99.90
33093;DHT22;19456;46.104;12.908;2023-12-20T15:29:18;8.40;99.90
33093;DHT22;19456;46.104;12.908;2023-12-20T15:31:45;8.40;99.90
33093;DHT22;19456;46.104;12.908;2023-12-20T15:34:11;8.40;99.90
33093;DHT22;19456;46.104;12.908;2023-12-20T15:36:37;8.30;99.90
33093;DHT22;19456;46.104;12.908;2023-12-20T15:39:03;8.20;99.90
33093;DHT22;19456;46.104;12.908;2023-12-20T15:41:29;8.10;99.90
33093;DHT22;19456;46.104;12.908;2023-12-20T15:43:54;8.00;99.90
33093;DHT22;19456;46.104;12.908;2023-12-20T15:46:21;7.90;99.90
33093;DHT22;19456;46.104;12.908;2023-12-20T15:48:46;7.80;99.90
33093;DHT22;19456;46.104;12.908;2023-12-20T15:51:13;7.70;99.90
33093;DHT22;19456;46.104;12.908;2023-12-20T15:53:39;7.60;99.90
33093;DHT22;19456;46.104;12.908;2023-12-20T15:56:04;7.40;99.90